• 1385014 10153382300060425 128216538 n
  • 3
  • 6
  • 7
  • 1
  • 10
  • 未命名
  • 121
  • 55
  • 2
  • cargo

$ 5100
donation thermometer
donation thermometer
$ 350
donation thermometer
7%
Updated
27/3/2014

Welcome aboard

Current Weather

[source: ADDS]
METAR
RCTP 181230Z 36003KT 330V050 9999 FEW012 SCT020 BKN040 24/21 Q1013 NOSIG RMK A2993 =
TAF
TAF RCTP 181104Z 1812/1918 33005KT 9999 FEW015 BKN032 TEMPO 1812/1818 04005KT FEW010 BKN016 BKN040 TEMPO 1818/1902 3000 BR FEW008 BKN012 BKN035 TEMPO 1902/1908 FEW010 BKN016 BECMG 1910/1912 27005KT =